Terminal Aerodrome Forecast
Issued by NWS

Home | Current Version | Previous Version | Text Only | Print | Product List | Glossary On
Versions: 1 2 3 4 5 6 7 8 9 10 11 12
000
FTUS43 KOAX 060520
TAFBFF
TAF
KBFF 060520Z 0606/0706 16008KT P6SM SCT250
     FM061200 13009KT P6SM BKN250
     FM061900 12015G25KT P6SM BKN120
     FM070100 08011KT P6SM BKN060=

USA.gov is the U.S. government's official web portal to all federal, state and local government web resources and services.